sensor_id;sensor_type;location;lat;lon;timestamp;P1;durP1;ratioP1;P2;durP2;ratioP2
5058;SDS011;2548;52.050;11.036;2023-11-21T00:01:25;14.00;;;5.72;;
5058;SDS011;2548;52.050;11.036;2023-11-21T00:04:02;13.88;;;6.25;;
5058;SDS011;2548;52.050;11.036;2023-11-21T00:06:29;14.88;;;5.82;;
5058;SDS011;2548;52.050;11.036;2023-11-21T00:09:00;10.43;;;6.35;;
5058;SDS011;2548;52.050;11.036;2023-11-21T00:11:37;25.23;;;7.95;;
5058;SDS011;2548;52.050;11.036;2023-11-21T00:14:05;8.80;;;5.10;;
5058;SDS011;2548;52.050;11.036;2023-11-21T00:16:42;12.48;;;7.45;;
5058;SDS011;2548;52.050;11.036;2023-11-21T00:19:10;15.13;;;6.65;;
5058;SDS011;2548;52.050;11.036;2023-11-21T00:21:38;16.88;;;8.25;;
5058;SDS011;2548;52.050;11.036;2023-11-21T00:24:05;9.50;;;5.90;;
5058;SDS011;2548;52.050;11.036;2023-11-21T00:26:39;14.77;;;6.47;;
5058;SDS011;2548;52.050;11.036;2023-11-21T00:29:09;14.02;;;6.05;;
5058;SDS011;2548;52.050;11.036;2023-11-21T00:31:54;13.77;;;6.28;;
5058;SDS011;2548;52.050;11.036;2023-11-21T00:34:21;11.95;;;6.88;;
5058;SDS011;2548;52.050;11.036;2023-11-21T00:36:57;18.23;;;6.50;;
5058;SDS011;2548;52.050;11.036;2023-11-21T00:39:37;14.05;;;6.10;;
5058;SDS011;2548;52.050;11.036;2023-11-21T00:42:09;12.55;;;7.30;;
5058;SDS011;2548;52.050;11.036;2023-11-21T00:44:37;8.95;;;6.43;;
5058;SDS011;2548;52.050;11.036;2023-11-21T00:47:06;12.63;;;6.88;;
5058;SDS011;2548;52.050;11.036;2023-11-21T00:49:37;8.88;;;5.65;;
5058;SDS011;2548;52.050;11.036;2023-11-21T00:52:17;13.43;;;7.53;;
5058;SDS011;2548;52.050;11.036;2023-11-21T00:54:46;11.48;;;7.55;;
5058;SDS011;2548;52.050;11.036;2023-11-21T00:57:18;10.85;;;6.50;;
5058;SDS011;2548;52.050;11.036;2023-11-21T00:59:45;17.38;;;5.95;;
5058;SDS011;2548;52.050;11.036;2023-11-21T01:02:14;10.50;;;5.90;;
5058;SDS011;2548;52.050;11.036;2023-11-21T01:04:42;12.63;;;6.60;;
5058;SDS011;2548;52.050;11.036;2023-11-21T01:07:14;15.30;;;7.00;;
5058;SDS011;2548;52.050;11.036;2023-11-21T01:09:41;16.58;;;6.63;;
5058;SDS011;2548;52.050;11.036;2023-11-21T01:12:18;16.48;;;7.68;;
5058;SDS011;2548;52.050;11.036;2023-11-21T01:14:57;14.15;;;7.35;;
5058;SDS011;2548;52.050;11.036;2023-11-21T01:17:27;9.95;;;6.80;;
5058;SDS011;2548;52.050;11.036;2023-11-21T01:19:54;21.45;;;8.25;;
5058;SDS011;2548;52.050;11.036;2023-11-21T01:22:25;15.52;;;7.63;;
5058;SDS011;2548;52.050;11.036;2023-11-21T01:25:00;17.83;;;7.47;;
5058;SDS011;2548;52.050;11.036;2023-11-21T01:27:37;19.70;;;6.45;;
5058;SDS011;2548;52.050;11.036;2023-11-21T01:30:20;14.60;;;7.70;;
5058;SDS011;2548;52.050;11.036;2023-11-21T01:32:49;23.85;;;7.32;;
5058;SDS011;2548;52.050;11.036;2023-11-21T01:35:16;14.63;;;7.40;;
5058;SDS011;2548;52.050;11.036;2023-11-21T01:37:49;11.85;;;6.85;;
5058;SDS011;2548;52.050;11.036;2023-11-21T01:40:27;12.10;;;5.82;;
5058;SDS011;2548;52.050;11.036;2023-11-21T01:42:57;17.60;;;7.18;;
5058;SDS011;2548;52.050;11.036;2023-11-21T01:45:27;17.98;;;7.78;;
5058;SDS011;2548;52.050;11.036;2023-11-21T01:47:58;14.57;;;6.90;;
5058;SDS011;2548;52.050;11.036;2023-11-21T01:50:26;12.38;;;7.85;;
5058;SDS011;2548;52.050;11.036;2023-11-21T01:52:54;12.38;;;6.55;;
5058;SDS011;2548;52.050;11.036;2023-11-21T01:55:30;12.90;;;8.13;;
5058;SDS011;2548;52.050;11.036;2023-11-21T01:58:01;13.20;;;7.60;;
5058;SDS011;2548;52.050;11.036;2023-11-21T02:00:28;10.65;;;7.28;;
5058;SDS011;2548;52.050;11.036;2023-11-21T02:02:58;24.38;;;9.57;;
5058;SDS011;2548;52.050;11.036;2023-11-21T02:05:26;40.20;;;16.73;;
5058;SDS011;2548;52.050;11.036;2023-11-21T02:07:55;45.28;;;17.73;;
5058;SDS011;2548;52.050;11.036;2023-11-21T02:10:22;37.33;;;16.55;;
5058;SDS011;2548;52.050;11.036;2023-11-21T02:12:50;31.15;;;13.13;;
5058;SDS011;2548;52.050;11.036;2023-11-21T02:15:27;24.42;;;8.40;;
5058;SDS011;2548;52.050;11.036;2023-11-21T02:17:54;15.32;;;8.52;;
5058;SDS011;2548;52.050;11.036;2023-11-21T02:20:31;23.88;;;8.23;;
5058;SDS011;2548;52.050;11.036;2023-11-21T02:23:05;22.48;;;9.68;;
5058;SDS011;2548;52.050;11.036;2023-11-21T02:25:33;18.67;;;9.25;;
5058;SDS011;2548;52.050;11.036;2023-11-21T02:28:02;18.15;;;9.23;;
5058;SDS011;2548;52.050;11.036;2023-11-21T02:30:35;15.10;;;8.52;;
5058;SDS011;2548;52.050;11.036;2023-11-21T02:33:02;12.52;;;7.85;;
5058;SDS011;2548;52.050;11.036;2023-11-21T02:35:33;14.95;;;7.80;;
5058;SDS011;2548;52.050;11.036;2023-11-21T02:38:09;15.38;;;8.35;;
5058;SDS011;2548;52.050;11.036;2023-11-21T02:40:48;22.58;;;9.15;;
5058;SDS011;2548;52.050;11.036;2023-11-21T02:43:18;12.52;;;7.97;;
5058;SDS011;2548;52.050;11.036;2023-11-21T02:45:52;19.35;;;8.90;;
5058;SDS011;2548;52.050;11.036;2023-11-21T02:48:19;16.65;;;8.90;;
5058;SDS011;2548;52.050;11.036;2023-11-21T02:50:55;18.63;;;9.15;;
5058;SDS011;2548;52.050;11.036;2023-11-21T02:53:34;15.32;;;7.35;;
5058;SDS011;2548;52.050;11.036;2023-11-21T02:56:13;14.20;;;8.30;;
5058;SDS011;2548;52.050;11.036;2023-11-21T02:58:41;15.55;;;8.23;;
5058;SDS011;2548;52.050;11.036;2023-11-21T03:01:21;22.58;;;7.78;;
5058;SDS011;2548;52.050;11.036;2023-11-21T03:03:49;13.18;;;7.18;;
5058;SDS011;2548;52.050;11.036;2023-11-21T03:06:20;18.55;;;9.07;;
5058;SDS011;2548;52.050;11.036;2023-11-21T03:08:59;21.60;;;8.93;;
5058;SDS011;2548;52.050;11.036;2023-11-21T03:11:27;21.05;;;8.77;;
5058;SDS011;2548;52.050;11.036;2023-11-21T03:13:55;14.90;;;7.18;;
5058;SDS011;2548;52.050;11.036;2023-11-21T03:16:22;23.83;;;8.68;;
5058;SDS011;2548;52.050;11.036;2023-11-21T03:18:50;14.18;;;8.20;;
5058;SDS011;2548;52.050;11.036;2023-11-21T03:21:18;11.38;;;6.97;;
5058;SDS011;2548;52.050;11.036;2023-11-21T03:23:48;21.38;;;9.55;;
5058;SDS011;2548;52.050;11.036;2023-11-21T03:26:24;18.40;;;7.97;;
5058;SDS011;2548;52.050;11.036;2023-11-21T03:28:58;14.32;;;8.73;;
5058;SDS011;2548;52.050;11.036;2023-11-21T03:31:25;25.13;;;8.88;;
5058;SDS011;2548;52.050;11.036;2023-11-21T03:33:53;22.58;;;8.48;;
5058;SDS011;2548;52.050;11.036;2023-11-21T03:36:20;19.00;;;8.50;;
5058;SDS011;2548;52.050;11.036;2023-11-21T03:38:54;14.20;;;8.70;;
5058;SDS011;2548;52.050;11.036;2023-11-21T03:41:29;21.55;;;8.95;;
5058;SDS011;2548;52.050;11.036;2023-11-21T03:43:56;30.30;;;7.90;;
5058;SDS011;2548;52.050;11.036;2023-11-21T03:46:23;20.00;;;10.10;;
5058;SDS011;2548;52.050;11.036;2023-11-21T03:48:53;14.48;;;8.35;;
5058;SDS011;2548;52.050;11.036;2023-11-21T03:51:21;23.27;;;8.10;;
5058;SDS011;2548;52.050;11.036;2023-11-21T03:54:01;13.98;;;9.05;;
5058;SDS011;2548;52.050;11.036;2023-11-21T03:56:33;16.20;;;8.57;;
5058;SDS011;2548;52.050;11.036;2023-11-21T03:59:00;23.35;;;9.90;;
5058;SDS011;2548;52.050;11.036;2023-11-21T04:01:29;23.08;;;10.57;;
5058;SDS011;2548;52.050;11.036;2023-11-21T04:03:56;18.55;;;10.13;;
5058;SDS011;2548;52.050;11.036;2023-11-21T04:06:24;31.95;;;10.40;;
5058;SDS011;2548;52.050;11.036;2023-11-21T04:08:53;20.35;;;10.23;;
5058;SDS011;2548;52.050;11.036;2023-11-21T04:11:27;30.80;;;11.00;;
5058;SDS011;2548;52.050;11.036;2023-11-21T04:14:02;17.75;;;10.35;;
5058;SDS011;2548;52.050;11.036;2023-11-21T04:16:30;22.98;;;10.50;;
5058;SDS011;2548;52.050;11.036;2023-11-21T04:18:57;23.60;;;10.20;;
5058;SDS011;2548;52.050;11.036;2023-11-21T04:21:28;18.27;;;10.23;;
5058;SDS011;2548;52.050;11.036;2023-11-21T04:23:55;22.08;;;9.77;;
5058;SDS011;2548;52.050;11.036;2023-11-21T04:26:22;17.98;;;11.35;;
5058;SDS011;2548;52.050;11.036;2023-11-21T04:28:50;22.80;;;13.18;;
5058;SDS011;2548;52.050;11.036;2023-11-21T04:31:19;21.63;;;11.25;;
5058;SDS011;2548;52.050;11.036;2023-11-21T04:33:49;35.60;;;12.20;;
5058;SDS011;2548;52.050;11.036;2023-11-21T04:36:20;27.15;;;12.38;;
5058;SDS011;2548;52.050;11.036;2023-11-21T04:38:47;20.67;;;12.13;;
5058;SDS011;2548;52.050;11.036;2023-11-21T04:41:20;24.52;;;11.20;;
5058;SDS011;2548;52.050;11.036;2023-11-21T04:43:51;26.70;;;12.63;;
5058;SDS011;2548;52.050;11.036;2023-11-21T04:46:19;16.80;;;10.15;;
5058;SDS011;2548;52.050;11.036;2023-11-21T04:48:47;36.92;;;12.30;;
5058;SDS011;2548;52.050;11.036;2023-11-21T04:51:21;21.52;;;11.15;;
5058;SDS011;2548;52.050;11.036;2023-11-21T04:53:54;21.48;;;10.55;;
5058;SDS011;2548;52.050;11.036;2023-11-21T04:56:26;28.10;;;11.38;;
5058;SDS011;2548;52.050;11.036;2023-11-21T04:58:54;24.05;;;13.60;;
5058;SDS011;2548;52.050;11.036;2023-11-21T05:01:28;37.38;;;12.23;;
5058;SDS011;2548;52.050;11.036;2023-11-21T05:03:56;24.58;;;11.93;;
5058;SDS011;2548;52.050;11.036;2023-11-21T05:06:37;25.42;;;11.80;;
5058;SDS011;2548;52.050;11.036;2023-11-21T05:09:15;24.08;;;13.85;;
5058;SDS011;2548;52.050;11.036;2023-11-21T05:11:57;24.35;;;11.45;;
5058;SDS011;2548;52.050;11.036;2023-11-21T05:14:25;26.00;;;11.98;;
5058;SDS011;2548;52.050;11.036;2023-11-21T05:16:54;21.00;;;12.82;;
5058;SDS011;2548;52.050;11.036;2023-11-21T05:19:25;27.98;;;12.02;;
5058;SDS011;2548;52.050;11.036;2023-11-21T05:21:55;20.05;;;11.98;;
5058;SDS011;2548;52.050;11.036;2023-11-21T05:24:25;16.92;;;11.98;;
5058;SDS011;2548;52.050;11.036;2023-11-21T05:26:57;33.65;;;15.10;;
5058;SDS011;2548;52.050;11.036;2023-11-21T05:29:27;22.30;;;12.25;;
5058;SDS011;2548;52.050;11.036;2023-11-21T05:31:56;29.08;;;12.57;;
5058;SDS011;2548;52.050;11.036;2023-11-21T05:34:23;26.27;;;12.93;;
5058;SDS011;2548;52.050;11.036;2023-11-21T05:37:00;29.38;;;15.73;;
5058;SDS011;2548;52.050;11.036;2023-11-21T05:39:28;26.77;;;13.52;;
5058;SDS011;2548;52.050;11.036;2023-11-21T05:41:56;30.80;;;14.45;;
5058;SDS011;2548;52.050;11.036;2023-11-21T05:44:28;27.50;;;15.05;;
5058;SDS011;2548;52.050;11.036;2023-11-21T05:46:57;25.27;;;13.68;;
5058;SDS011;2548;52.050;11.036;2023-11-21T05:49:25;23.58;;;15.23;;
5058;SDS011;2548;52.050;11.036;2023-11-21T05:51:52;30.13;;;14.65;;
5058;SDS011;2548;52.050;11.036;2023-11-21T05:54:20;22.73;;;14.30;;
5058;SDS011;2548;52.050;11.036;2023-11-21T05:56:49;27.45;;;13.73;;
5058;SDS011;2548;52.050;11.036;2023-11-21T05:59:16;40.15;;;14.63;;
5058;SDS011;2548;52.050;11.036;2023-11-21T06:01:52;25.77;;;14.73;;
5058;SDS011;2548;52.050;11.036;2023-11-21T06:04:21;32.17;;;14.48;;
5058;SDS011;2548;52.050;11.036;2023-11-21T06:06:50;31.25;;;16.10;;
5058;SDS011;2548;52.050;11.036;2023-11-21T06:09:18;29.85;;;14.55;;
5058;SDS011;2548;52.050;11.036;2023-11-21T06:11:46;28.30;;;14.40;;
5058;SDS011;2548;52.050;11.036;2023-11-21T06:14:13;44.45;;;18.25;;
5058;SDS011;2548;52.050;11.036;2023-11-21T06:16:44;32.38;;;16.00;;
5058;SDS011;2548;52.050;11.036;2023-11-21T06:19:11;29.17;;;14.73;;
5058;SDS011;2548;52.050;11.036;2023-11-21T06:21:46;36.15;;;14.98;;
5058;SDS011;2548;52.050;11.036;2023-11-21T06:24:13;25.80;;;15.43;;
5058;SDS011;2548;52.050;11.036;2023-11-21T06:26:44;28.42;;;14.00;;
5058;SDS011;2548;52.050;11.036;2023-11-21T06:29:11;40.45;;;15.35;;
5058;SDS011;2548;52.050;11.036;2023-11-21T06:31:47;34.72;;;15.10;;
5058;SDS011;2548;52.050;11.036;2023-11-21T06:34:14;36.22;;;16.00;;
5058;SDS011;2548;52.050;11.036;2023-11-21T06:36:57;39.17;;;15.95;;
5058;SDS011;2548;52.050;11.036;2023-11-21T06:39:24;28.63;;;14.68;;
5058;SDS011;2548;52.050;11.036;2023-11-21T06:41:56;27.75;;;16.55;;
5058;SDS011;2548;52.050;11.036;2023-11-21T06:44:26;28.13;;;16.23;;
5058;SDS011;2548;52.050;11.036;2023-11-21T06:46:53;34.03;;;16.75;;
5058;SDS011;2548;52.050;11.036;2023-11-21T06:49:27;39.10;;;19.73;;
5058;SDS011;2548;52.050;11.036;2023-11-21T06:51:56;34.75;;;16.85;;
5058;SDS011;2548;52.050;11.036;2023-11-21T06:54:24;31.80;;;16.23;;
5058;SDS011;2548;52.050;11.036;2023-11-21T06:56:51;59.15;;;22.30;;
5058;SDS011;2548;52.050;11.036;2023-11-21T06:59:22;46.58;;;20.63;;
5058;SDS011;2548;52.050;11.036;2023-11-21T07:01:53;29.33;;;11.18;;
5058;SDS011;2548;52.050;11.036;2023-11-21T07:04:26;24.17;;;8.80;;
5058;SDS011;2548;52.050;11.036;2023-11-21T07:06:58;12.30;;;5.15;;
5058;SDS011;2548;52.050;11.036;2023-11-21T07:09:25;15.63;;;4.65;;
5058;SDS011;2548;52.050;11.036;2023-11-21T07:11:53;30.75;;;6.45;;
5058;SDS011;2548;52.050;11.036;2023-11-21T07:14:24;22.33;;;7.63;;
5058;SDS011;2548;52.050;11.036;2023-11-21T07:16:55;16.95;;;7.13;;
5058;SDS011;2548;52.050;11.036;2023-11-21T07:19:24;23.17;;;7.95;;
5058;SDS011;2548;52.050;11.036;2023-11-21T07:21:55;21.67;;;11.13;;
5058;SDS011;2548;52.050;11.036;2023-11-21T07:24:27;18.65;;;11.77;;
5058;SDS011;2548;52.050;11.036;2023-11-21T07:26:54;12.30;;;8.98;;
5058;SDS011;2548;52.050;11.036;2023-11-21T07:29:23;13.48;;;10.05;;
5058;SDS011;2548;52.050;11.036;2023-11-21T07:31:52;22.65;;;7.63;;
5058;SDS011;2548;52.050;11.036;2023-11-21T07:34:19;9.73;;;7.18;;
5058;SDS011;2548;52.050;11.036;2023-11-21T07:36:50;8.60;;;6.97;;
5058;SDS011;2548;52.050;11.036;2023-11-21T07:39:23;11.32;;;6.95;;
5058;SDS011;2548;52.050;11.036;2023-11-21T07:41:56;11.73;;;9.00;;
5058;SDS011;2548;52.050;11.036;2023-11-21T07:44:26;13.75;;;8.82;;
5058;SDS011;2548;52.050;11.036;2023-11-21T07:46:54;15.10;;;9.20;;
5058;SDS011;2548;52.050;11.036;2023-11-21T07:49:25;11.77;;;9.95;;
5058;SDS011;2548;52.050;11.036;2023-11-21T07:51:53;16.63;;;9.32;;
5058;SDS011;2548;52.050;11.036;2023-11-21T07:54:20;13.10;;;9.63;;
5058;SDS011;2548;52.050;11.036;2023-11-21T07:56:51;19.23;;;11.95;;
5058;SDS011;2548;52.050;11.036;2023-11-21T07:59:19;21.55;;;11.38;;
5058;SDS011;2548;52.050;11.036;2023-11-21T08:01:52;18.70;;;10.82;;
5058;SDS011;2548;52.050;11.036;2023-11-21T08:04:20;19.38;;;11.25;;
5058;SDS011;2548;52.050;11.036;2023-11-21T08:06:47;18.50;;;10.73;;
5058;SDS011;2548;52.050;11.036;2023-11-21T08:09:15;13.60;;;9.98;;
5058;SDS011;2548;52.050;11.036;2023-11-21T08:11:43;15.85;;;11.60;;
5058;SDS011;2548;52.050;11.036;2023-11-21T08:14:13;16.25;;;12.45;;
5058;SDS011;2548;52.050;11.036;2023-11-21T08:16:43;20.25;;;12.45;;
5058;SDS011;2548;52.050;11.036;2023-11-21T08:19:17;18.30;;;13.10;;
5058;SDS011;2548;52.050;11.036;2023-11-21T08:21:45;20.42;;;12.20;;
5058;SDS011;2548;52.050;11.036;2023-11-21T08:24:12;23.60;;;13.63;;
5058;SDS011;2548;52.050;11.036;2023-11-21T08:26:51;22.77;;;16.70;;
5058;SDS011;2548;52.050;11.036;2023-11-21T08:29:23;28.00;;;15.20;;
5058;SDS011;2548;52.050;11.036;2023-11-21T08:31:56;24.58;;;15.07;;
5058;SDS011;2548;52.050;11.036;2023-11-21T08:34:25;24.23;;;16.13;;
5058;SDS011;2548;52.050;11.036;2023-11-21T08:36:54;21.33;;;14.70;;
5058;SDS011;2548;52.050;11.036;2023-11-21T08:39:23;20.02;;;14.18;;
5058;SDS011;2548;52.050;11.036;2023-11-21T08:41:50;21.65;;;13.77;;
5058;SDS011;2548;52.050;11.036;2023-11-21T08:44:18;19.27;;;13.95;;
5058;SDS011;2548;52.050;11.036;2023-11-21T08:46:58;19.92;;;12.93;;
5058;SDS011;2548;52.050;11.036;2023-11-21T08:49:25;19.92;;;14.18;;
5058;SDS011;2548;52.050;11.036;2023-11-21T08:52:02;22.63;;;12.40;;
5058;SDS011;2548;52.050;11.036;2023-11-21T08:54:30;17.17;;;12.77;;
5058;SDS011;2548;52.050;11.036;2023-11-21T08:57:00;18.52;;;12.80;;
5058;SDS011;2548;52.050;11.036;2023-11-21T08:59:27;17.73;;;12.40;;
5058;SDS011;2548;52.050;11.036;2023-11-21T09:01:56;15.00;;;11.50;;
5058;SDS011;2548;52.050;11.036;2023-11-21T09:04:23;17.35;;;12.10;;
5058;SDS011;2548;52.050;11.036;2023-11-21T09:06:54;14.80;;;11.63;;
5058;SDS011;2548;52.050;11.036;2023-11-21T09:09:21;13.38;;;10.00;;
5058;SDS011;2548;52.050;11.036;2023-11-21T09:11:50;11.73;;;9.60;;
5058;SDS011;2548;52.050;11.036;2023-11-21T09:14:23;14.75;;;11.18;;
5058;SDS011;2548;52.050;11.036;2023-11-21T09:16:54;11.75;;;9.57;;
5058;SDS011;2548;52.050;11.036;2023-11-21T09:19:29;12.05;;;9.52;;
5058;SDS011;2548;52.050;11.036;2023-11-21T09:22:08;13.25;;;9.90;;
5058;SDS011;2548;52.050;11.036;2023-11-21T09:24:42;13.88;;;9.75;;
5058;SDS011;2548;52.050;11.036;2023-11-21T09:27:09;13.68;;;9.93;;
5058;SDS011;2548;52.050;11.036;2023-11-21T09:29:49;9.48;;;8.40;;
5058;SDS011;2548;52.050;11.036;2023-11-21T09:32:22;12.43;;;10.07;;
5058;SDS011;2548;52.050;11.036;2023-11-21T09:34:56;11.75;;;9.40;;
5058;SDS011;2548;52.050;11.036;2023-11-21T09:37:27;11.77;;;8.60;;
5058;SDS011;2548;52.050;11.036;2023-11-21T09:39:54;10.00;;;7.93;;
5058;SDS011;2548;52.050;11.036;2023-11-21T09:42:23;9.68;;;8.73;;
5058;SDS011;2548;52.050;11.036;2023-11-21T09:44:58;12.90;;;9.55;;
5058;SDS011;2548;52.050;11.036;2023-11-21T09:47:35;10.82;;;9.52;;
5058;SDS011;2548;52.050;11.036;2023-11-21T09:50:05;10.90;;;9.05;;
5058;SDS011;2548;52.050;11.036;2023-11-21T09:52:33;11.25;;;9.30;;
5058;SDS011;2548;52.050;11.036;2023-11-21T09:55:08;11.98;;;9.32;;
5058;SDS011;2548;52.050;11.036;2023-11-21T09:57:44;27.88;;;9.18;;
5058;SDS011;2548;52.050;11.036;2023-11-21T10:00:17;9.70;;;7.60;;
5058;SDS011;2548;52.050;11.036;2023-11-21T10:02:52;9.43;;;8.27;;
5058;SDS011;2548;52.050;11.036;2023-11-21T10:05:20;11.95;;;9.35;;
5058;SDS011;2548;52.050;11.036;2023-11-21T10:07:48;10.48;;;8.98;;
5058;SDS011;2548;52.050;11.036;2023-11-21T10:10:20;23.92;;;11.20;;
5058;SDS011;2548;52.050;11.036;2023-11-21T10:12:49;13.75;;;10.02;;
5058;SDS011;2548;52.050;11.036;2023-11-21T10:15:21;10.68;;;9.57;;
5058;SDS011;2548;52.050;11.036;2023-11-21T10:17:55;12.48;;;10.38;;
5058;SDS011;2548;52.050;11.036;2023-11-21T10:20:32;13.93;;;9.82;;
5058;SDS011;2548;52.050;11.036;2023-11-21T10:23:00;15.00;;;10.07;;
5058;SDS011;2548;52.050;11.036;2023-11-21T10:25:33;18.35;;;11.63;;
5058;SDS011;2548;52.050;11.036;2023-11-21T10:28:02;20.20;;;11.68;;
5058;SDS011;2548;52.050;11.036;2023-11-21T10:30:32;22.30;;;10.93;;
5058;SDS011;2548;52.050;11.036;2023-11-21T10:33:09;15.25;;;9.93;;
5058;SDS011;2548;52.050;11.036;2023-11-21T10:38:18;31.50;;;12.07;;
5058;SDS011;2548;52.050;11.036;2023-11-21T10:40:57;16.52;;;10.40;;
5058;SDS011;2548;52.050;11.036;2023-11-21T10:43:30;14.52;;;9.52;;
5058;SDS011;2548;52.050;11.036;2023-11-21T10:46:00;15.13;;;10.52;;
5058;SDS011;2548;52.050;11.036;2023-11-21T10:48:30;16.15;;;10.48;;
5058;SDS011;2548;52.050;11.036;2023-11-21T10:51:01;24.83;;;12.18;;
5058;SDS011;2548;52.050;11.036;2023-11-21T10:53:38;20.73;;;13.07;;
5058;SDS011;2548;52.050;11.036;2023-11-21T10:56:08;21.60;;;11.85;;
5058;SDS011;2548;52.050;11.036;2023-11-21T10:58:45;16.42;;;10.93;;
5058;SDS011;2548;52.050;11.036;2023-11-21T11:01:12;14.75;;;9.43;;
5058;SDS011;2548;52.050;11.036;2023-11-21T11:03:46;32.10;;;12.20;;
5058;SDS011;2548;52.050;11.036;2023-11-21T11:06:17;30.77;;;13.27;;
5058;SDS011;2548;52.050;11.036;2023-11-21T11:08:45;79.20;;;26.63;;
5058;SDS011;2548;52.050;11.036;2023-11-21T11:11:14;21.60;;;11.70;;
5058;SDS011;2548;52.050;11.036;2023-11-21T11:13:43;95.13;;;24.80;;
5058;SDS011;2548;52.050;11.036;2023-11-21T11:16:13;59.60;;;18.58;;
5058;SDS011;2548;52.050;11.036;2023-11-21T11:18:59;17.33;;;12.05;;
5058;SDS011;2548;52.050;11.036;2023-11-21T11:21:28;19.42;;;10.68;;
5058;SDS011;2548;52.050;11.036;2023-11-21T11:27:16;13.05;;;9.55;;
5058;SDS011;2548;52.050;11.036;2023-11-21T11:30:04;14.15;;;10.05;;
5058;SDS011;2548;52.050;11.036;2023-11-21T11:32:57;16.55;;;10.30;;
5058;SDS011;2548;52.050;11.036;2023-11-21T11:35:37;14.48;;;10.10;;
5058;SDS011;2548;52.050;11.036;2023-11-21T11:38:16;23.65;;;11.55;;
5058;SDS011;2548;52.050;11.036;2023-11-21T11:40:45;33.55;;;15.15;;
5058;SDS011;2548;52.050;11.036;2023-11-21T11:43:13;22.77;;;11.68;;
5058;SDS011;2548;52.050;11.036;2023-11-21T11:46:09;10.00;;;8.38;;
5058;SDS011;2548;52.050;11.036;2023-11-21T11:48:48;15.73;;;11.60;;
5058;SDS011;2548;52.050;11.036;2023-11-21T11:51:17;13.27;;;9.82;;
5058;SDS011;2548;52.050;11.036;2023-11-21T11:53:46;17.35;;;10.55;;
5058;SDS011;2548;52.050;11.036;2023-11-21T11:56:27;14.02;;;10.05;;
5058;SDS011;2548;52.050;11.036;2023-11-21T11:58:56;9.65;;;8.63;;
5058;SDS011;2548;52.050;11.036;2023-11-21T12:01:32;11.30;;;8.73;;
5058;SDS011;2548;52.050;11.036;2023-11-21T12:07:01;12.38;;;8.90;;
5058;SDS011;2548;52.050;11.036;2023-11-21T12:09:29;13.02;;;9.20;;
5058;SDS011;2548;52.050;11.036;2023-11-21T12:11:58;30.98;;;22.10;;
5058;SDS011;2548;52.050;11.036;2023-11-21T12:14:26;55.45;;;34.53;;
5058;SDS011;2548;52.050;11.036;2023-11-21T12:17:00;12.80;;;10.38;;
5058;SDS011;2548;52.050;11.036;2023-11-21T12:19:33;25.05;;;14.30;;
5058;SDS011;2548;52.050;11.036;2023-11-21T12:22:02;22.95;;;13.50;;
5058;SDS011;2548;52.050;11.036;2023-11-21T12:24:32;28.52;;;14.65;;
5058;SDS011;2548;52.050;11.036;2023-11-21T12:27:00;35.78;;;17.65;;
5058;SDS011;2548;52.050;11.036;2023-11-21T12:29:27;41.17;;;17.98;;
5058;SDS011;2548;52.050;11.036;2023-11-21T12:31:55;38.83;;;16.25;;
5058;SDS011;2548;52.050;11.036;2023-11-21T12:34:23;63.60;;;25.25;;
5058;SDS011;2548;52.050;11.036;2023-11-21T12:36:50;44.83;;;18.15;;
5058;SDS011;2548;52.050;11.036;2023-11-21T12:39:23;20.30;;;11.35;;
5058;SDS011;2548;52.050;11.036;2023-11-21T12:41:50;25.45;;;12.45;;
5058;SDS011;2548;52.050;11.036;2023-11-21T12:44:24;35.03;;;15.35;;
5058;SDS011;2548;52.050;11.036;2023-11-21T12:46:51;48.88;;;17.88;;
5058;SDS011;2548;52.050;11.036;2023-11-21T12:49:19;69.72;;;16.17;;
5058;SDS011;2548;52.050;11.036;2023-11-21T12:51:49;84.03;;;19.20;;
5058;SDS011;2548;52.050;11.036;2023-11-21T12:54:21;91.65;;;23.42;;
5058;SDS011;2548;52.050;11.036;2023-11-21T12:56:49;91.07;;;23.35;;
5058;SDS011;2548;52.050;11.036;2023-11-21T12:59:20;90.43;;;22.23;;
5058;SDS011;2548;52.050;11.036;2023-11-21T13:01:48;114.78;;;23.73;;
5058;SDS011;2548;52.050;11.036;2023-11-21T13:04:29;84.25;;;23.75;;
5058;SDS011;2548;52.050;11.036;2023-11-21T13:07:02;43.50;;;17.48;;
5058;SDS011;2548;52.050;11.036;2023-11-21T13:09:33;27.70;;;11.55;;
5058;SDS011;2548;52.050;11.036;2023-11-21T13:12:01;20.40;;;9.70;;
5058;SDS011;2548;52.050;11.036;2023-11-21T13:14:30;29.50;;;11.95;;
5058;SDS011;2548;52.050;11.036;2023-11-21T13:16:57;13.77;;;7.57;;
5058;SDS011;2548;52.050;11.036;2023-11-21T13:19:25;16.65;;;8.75;;
5058;SDS011;2548;52.050;11.036;2023-11-21T13:21:53;28.58;;;11.38;;
5058;SDS011;2548;52.050;11.036;2023-11-21T13:24:20;31.63;;;11.25;;
5058;SDS011;2548;52.050;11.036;2023-11-21T13:26:52;24.25;;;9.45;;
5058;SDS011;2548;52.050;11.036;2023-11-21T13:29:20;22.40;;;8.25;;
5058;SDS011;2548;52.050;11.036;2023-11-21T13:31:54;31.08;;;10.45;;
5058;SDS011;2548;52.050;11.036;2023-11-21T13:34:34;13.43;;;6.68;;
5058;SDS011;2548;52.050;11.036;2023-11-21T13:37:02;25.92;;;8.60;;
5058;SDS011;2548;52.050;11.036;2023-11-21T13:39:33;22.35;;;9.60;;
5058;SDS011;2548;52.050;11.036;2023-11-21T13:42:05;34.00;;;10.90;;
5058;SDS011;2548;52.050;11.036;2023-11-21T13:44:33;21.40;;;8.10;;
5058;SDS011;2548;52.050;11.036;2023-11-21T13:47:04;22.90;;;9.02;;
5058;SDS011;2548;52.050;11.036;2023-11-21T13:49:35;44.22;;;13.85;;
5058;SDS011;2548;52.050;11.036;2023-11-21T13:52:06;20.23;;;8.88;;
5058;SDS011;2548;52.050;11.036;2023-11-21T13:54:37;15.00;;;7.38;;
5058;SDS011;2548;52.050;11.036;2023-11-21T13:57:06;12.50;;;6.78;;
5058;SDS011;2548;52.050;11.036;2023-11-21T13:59:33;19.98;;;8.05;;
5058;SDS011;2548;52.050;11.036;2023-11-21T14:02:02;16.80;;;8.85;;
5058;SDS011;2548;52.050;11.036;2023-11-21T14:04:42;8.43;;;6.18;;
5058;SDS011;2548;52.050;11.036;2023-11-21T14:07:20;12.93;;;10.80;;
5058;SDS011;2548;52.050;11.036;2023-11-21T14:09:58;63.15;;;25.05;;
5058;SDS011;2548;52.050;11.036;2023-11-21T14:12:29;20.80;;;11.05;;
5058;SDS011;2548;52.050;11.036;2023-11-21T14:15:03;31.00;;;13.10;;
5058;SDS011;2548;52.050;11.036;2023-11-21T14:17:38;24.10;;;10.65;;
5058;SDS011;2548;52.050;11.036;2023-11-21T14:20:14;22.90;;;9.45;;
5058;SDS011;2548;52.050;11.036;2023-11-21T14:22:44;21.45;;;9.77;;
5058;SDS011;2548;52.050;11.036;2023-11-21T14:25:18;13.93;;;8.00;;
5058;SDS011;2548;52.050;11.036;2023-11-21T14:27:49;21.15;;;9.05;;
5058;SDS011;2548;52.050;11.036;2023-11-21T14:30:20;33.30;;;10.82;;
5058;SDS011;2548;52.050;11.036;2023-11-21T14:32:48;31.55;;;11.68;;
5058;SDS011;2548;52.050;11.036;2023-11-21T14:35:16;37.72;;;13.40;;
5058;SDS011;2548;52.050;11.036;2023-11-21T14:37:44;14.20;;;7.97;;
5058;SDS011;2548;52.050;11.036;2023-11-21T14:40:12;45.42;;;14.60;;
5058;SDS011;2548;52.050;11.036;2023-11-21T14:42:41;22.42;;;9.15;;
5058;SDS011;2548;52.050;11.036;2023-11-21T14:45:15;5.78;;;5.05;;
5058;SDS011;2548;52.050;11.036;2023-11-21T14:47:45;31.65;;;10.07;;
5058;SDS011;2548;52.050;11.036;2023-11-21T14:50:21;11.77;;;6.05;;
5058;SDS011;2548;52.050;11.036;2023-11-21T14:53:20;29.02;;;7.55;;
5058;SDS011;2548;52.050;11.036;2023-11-21T14:56:09;47.90;;;12.40;;
5058;SDS011;2548;52.050;11.036;2023-11-21T14:58:39;23.70;;;8.35;;
5058;SDS011;2548;52.050;11.036;2023-11-21T15:01:07;30.27;;;8.82;;
5058;SDS011;2548;52.050;11.036;2023-11-21T15:03:36;31.45;;;8.60;;
5058;SDS011;2548;52.050;11.036;2023-11-21T15:06:16;20.40;;;7.13;;
5058;SDS011;2548;52.050;11.036;2023-11-21T15:08:52;16.17;;;8.18;;
5058;SDS011;2548;52.050;11.036;2023-11-21T15:11:41;11.43;;;7.57;;
5058;SDS011;2548;52.050;11.036;2023-11-21T15:14:09;12.48;;;8.20;;